sensor_id;sensor_type;location;lat;lon;timestamp;temperature;humidity
11144;DHT22;5626;44.730;10.276;2022-07-06T00:00:22;26.00;83.50
11144;DHT22;5626;44.730;10.276;2022-07-06T00:02:53;26.00;84.10
11144;DHT22;5626;44.730;10.276;2022-07-06T00:05:22;26.00;84.40
11144;DHT22;5626;44.730;10.276;2022-07-06T00:07:52;26.00;84.70
11144;DHT22;5626;44.730;10.276;2022-07-06T00:10:22;26.00;84.80
11144;DHT22;5626;44.730;10.276;2022-07-06T00:12:51;26.00;85.00
11144;DHT22;5626;44.730;10.276;2022-07-06T00:15:21;26.00;85.10
11144;DHT22;5626;44.730;10.276;2022-07-06T00:17:50;25.90;85.20
11144;DHT22;5626;44.730;10.276;2022-07-06T00:20:21;25.90;85.30
11144;DHT22;5626;44.730;10.276;2022-07-06T00:22:51;25.90;85.60
11144;DHT22;5626;44.730;10.276;2022-07-06T00:25:21;25.80;85.80
11144;DHT22;5626;44.730;10.276;2022-07-06T00:27:50;25.80;86.10
11144;DHT22;5626;44.730;10.276;2022-07-06T00:30:20;25.80;86.60
11144;DHT22;5626;44.730;10.276;2022-07-06T00:32:49;25.70;86.70
11144;DHT22;5626;44.730;10.276;2022-07-06T00:35:20;25.70;87.10
11144;DHT22;5626;44.730;10.276;2022-07-06T00:37:50;25.70;87.40
11144;DHT22;5626;44.730;10.276;2022-07-06T00:40:20;25.70;87.70
11144;DHT22;5626;44.730;10.276;2022-07-06T00:42:50;25.70;88.10
11144;DHT22;5626;44.730;10.276;2022-07-06T00:45:19;25.70;88.50
11144;DHT22;5626;44.730;10.276;2022-07-06T00:47:50;25.70;88.70
11144;DHT22;5626;44.730;10.276;2022-07-06T00:50:21;25.60;89.00
11144;DHT22;5626;44.730;10.276;2022-07-06T00:52:52;25.50;89.10
11144;DHT22;5626;44.730;10.276;2022-07-06T00:55:23;25.50;89.90
11144;DHT22;5626;44.730;10.276;2022-07-06T00:57:54;25.40;90.10
11144;DHT22;5626;44.730;10.276;2022-07-06T01:00:25;25.40;90.10
11144;DHT22;5626;44.730;10.276;2022-07-06T01:02:55;25.40;90.20
11144;DHT22;5626;44.730;10.276;2022-07-06T01:05:27;25.40;90.30
11144;DHT22;5626;44.730;10.276;2022-07-06T01:07:57;25.40;90.30
11144;DHT22;5626;44.730;10.276;2022-07-06T01:10:26;25.30;90.40
11144;DHT22;5626;44.730;10.276;2022-07-06T01:12:57;25.30;90.40
11144;DHT22;5626;44.730;10.276;2022-07-06T01:15:27;25.30;90.40
11144;DHT22;5626;44.730;10.276;2022-07-06T01:17:57;25.20;90.40
11144;DHT22;5626;44.730;10.276;2022-07-06T01:20:32;25.20;90.40
11144;DHT22;5626;44.730;10.276;2022-07-06T01:23:02;25.20;90.40
11144;DHT22;5626;44.730;10.276;2022-07-06T01:25:32;25.20;90.40
11144;DHT22;5626;44.730;10.276;2022-07-06T01:28:01;25.20;90.30
11144;DHT22;5626;44.730;10.276;2022-07-06T01:30:33;25.20;90.40
11144;DHT22;5626;44.730;10.276;2022-07-06T01:33:02;25.20;90.30
11144;DHT22;5626;44.730;10.276;2022-07-06T01:35:36;25.20;90.10
11144;DHT22;5626;44.730;10.276;2022-07-06T01:38:06;25.20;89.90
11144;DHT22;5626;44.730;10.276;2022-07-06T01:40:35;25.20;89.10
11144;DHT22;5626;44.730;10.276;2022-07-06T01:43:05;25.10;88.60
11144;DHT22;5626;44.730;10.276;2022-07-06T01:45:35;25.20;88.60
11144;DHT22;5626;44.730;10.276;2022-07-06T01:48:05;25.10;88.20
11144;DHT22;5626;44.730;10.276;2022-07-06T01:50:37;25.00;88.00
11144;DHT22;5626;44.730;10.276;2022-07-06T01:53:07;25.00;87.70
11144;DHT22;5626;44.730;10.276;2022-07-06T01:55:36;25.00;87.20
11144;DHT22;5626;44.730;10.276;2022-07-06T01:58:06;25.00;86.40
11144;DHT22;5626;44.730;10.276;2022-07-06T02:00:35;25.00;86.10
11144;DHT22;5626;44.730;10.276;2022-07-06T02:03:05;25.10;85.60
11144;DHT22;5626;44.730;10.276;2022-07-06T02:05:39;25.10;85.40
11144;DHT22;5626;44.730;10.276;2022-07-06T02:08:09;25.00;85.00
11144;DHT22;5626;44.730;10.276;2022-07-06T02:10:38;25.00;85.00
11144;DHT22;5626;44.730;10.276;2022-07-06T02:13:08;25.00;85.20
11144;DHT22;5626;44.730;10.276;2022-07-06T02:15:38;24.90;85.70
11144;DHT22;5626;44.730;10.276;2022-07-06T02:18:07;24.90;85.50
11144;DHT22;5626;44.730;10.276;2022-07-06T02:20:38;25.00;84.40
11144;DHT22;5626;44.730;10.276;2022-07-06T02:23:08;25.00;84.20
11144;DHT22;5626;44.730;10.276;2022-07-06T02:25:37;25.10;84.00
11144;DHT22;5626;44.730;10.276;2022-07-06T02:28:07;25.10;84.40
11144;DHT22;5626;44.730;10.276;2022-07-06T02:30:37;25.00;85.90
11144;DHT22;5626;44.730;10.276;2022-07-06T02:33:07;25.00;87.10
11144;DHT22;5626;44.730;10.276;2022-07-06T02:35:39;25.00;87.80
11144;DHT22;5626;44.730;10.276;2022-07-06T02:38:12;25.00;86.90
11144;DHT22;5626;44.730;10.276;2022-07-06T02:40:42;25.00;85.40
11144;DHT22;5626;44.730;10.276;2022-07-06T02:43:12;25.00;83.90
11144;DHT22;5626;44.730;10.276;2022-07-06T02:45:42;25.00;83.70
11144;DHT22;5626;44.730;10.276;2022-07-06T02:48:12;25.00;83.70
11144;DHT22;5626;44.730;10.276;2022-07-06T02:50:43;25.00;84.20
11144;DHT22;5626;44.730;10.276;2022-07-06T02:53:13;25.00;84.90
11144;DHT22;5626;44.730;10.276;2022-07-06T02:55:43;25.00;85.90
11144;DHT22;5626;44.730;10.276;2022-07-06T02:58:12;24.90;86.60
11144;DHT22;5626;44.730;10.276;2022-07-06T03:00:43;24.90;87.20
11144;DHT22;5626;44.730;10.276;2022-07-06T03:03:13;24.90;87.30
11144;DHT22;5626;44.730;10.276;2022-07-06T03:05:44;24.80;86.90
11144;DHT22;5626;44.730;10.276;2022-07-06T03:08:16;24.80;86.40
11144;DHT22;5626;44.730;10.276;2022-07-06T03:10:45;24.80;85.70
11144;DHT22;5626;44.730;10.276;2022-07-06T03:13:15;24.90;85.00
11144;DHT22;5626;44.730;10.276;2022-07-06T03:15:45;24.90;84.90
11144;DHT22;5626;44.730;10.276;2022-07-06T03:18:15;24.90;84.40
11144;DHT22;5626;44.730;10.276;2022-07-06T03:20:47;24.90;84.40
11144;DHT22;5626;44.730;10.276;2022-07-06T03:23:18;24.90;84.40
11144;DHT22;5626;44.730;10.276;2022-07-06T03:25:47;24.90;84.20
11144;DHT22;5626;44.730;10.276;2022-07-06T03:28:17;24.90;84.20
11144;DHT22;5626;44.730;10.276;2022-07-06T03:30:47;24.90;84.20
11144;DHT22;5626;44.730;10.276;2022-07-06T03:33:17;24.90;84.20
11144;DHT22;5626;44.730;10.276;2022-07-06T03:35:48;24.90;84.20
11144;DHT22;5626;44.730;10.276;2022-07-06T03:38:17;24.90;84.30
11144;DHT22;5626;44.730;10.276;2022-07-06T03:40:47;24.90;84.30
11144;DHT22;5626;44.730;10.276;2022-07-06T03:43:17;24.90;84.50
11144;DHT22;5626;44.730;10.276;2022-07-06T03:45:46;24.90;84.70
11144;DHT22;5626;44.730;10.276;2022-07-06T03:48:16;24.90;85.10
11144;DHT22;5626;44.730;10.276;2022-07-06T03:50:48;24.90;84.90
11144;DHT22;5626;44.730;10.276;2022-07-06T03:53:18;24.90;84.90
11144;DHT22;5626;44.730;10.276;2022-07-06T03:55:48;24.90;84.70
11144;DHT22;5626;44.730;10.276;2022-07-06T03:58:32;24.90;84.50
11144;DHT22;5626;44.730;10.276;2022-07-06T04:01:01;25.00;84.50
11144;DHT22;5626;44.730;10.276;2022-07-06T04:03:31;25.00;84.50
11144;DHT22;5626;44.730;10.276;2022-07-06T04:06:04;25.00;84.50
11144;DHT22;5626;44.730;10.276;2022-07-06T04:08:34;25.00;84.50
11144;DHT22;5626;44.730;10.276;2022-07-06T04:11:04;25.00;84.60
11144;DHT22;5626;44.730;10.276;2022-07-06T04:13:34;25.10;84.80
11144;DHT22;5626;44.730;10.276;2022-07-06T04:16:04;25.00;85.00
11144;DHT22;5626;44.730;10.276;2022-07-06T04:18:34;25.00;85.20
11144;DHT22;5626;44.730;10.276;2022-07-06T04:21:07;25.00;85.50
11144;DHT22;5626;44.730;10.276;2022-07-06T04:23:37;24.90;85.70
11144;DHT22;5626;44.730;10.276;2022-07-06T04:26:09;24.80;85.80
11144;DHT22;5626;44.730;10.276;2022-07-06T04:28:39;24.80;86.30
11144;DHT22;5626;44.730;10.276;2022-07-06T04:31:10;24.80;86.40
11144;DHT22;5626;44.730;10.276;2022-07-06T04:33:45;24.80;86.60
11144;DHT22;5626;44.730;10.276;2022-07-06T04:36:17;24.80;86.80
11144;DHT22;5626;44.730;10.276;2022-07-06T04:38:47;24.80;86.80
11144;DHT22;5626;44.730;10.276;2022-07-06T04:41:17;24.80;87.00
11144;DHT22;5626;44.730;10.276;2022-07-06T04:43:46;24.80;87.20
11144;DHT22;5626;44.730;10.276;2022-07-06T04:46:18;24.80;87.00
11144;DHT22;5626;44.730;10.276;2022-07-06T04:48:51;24.90;87.10
11144;DHT22;5626;44.730;10.276;2022-07-06T04:51:27;24.90;87.00
11144;DHT22;5626;44.730;10.276;2022-07-06T04:53:58;24.90;86.80
11144;DHT22;5626;44.730;10.276;2022-07-06T04:56:28;24.90;86.80
11144;DHT22;5626;44.730;10.276;2022-07-06T04:58:58;24.90;86.80
11144;DHT22;5626;44.730;10.276;2022-07-06T05:01:28;24.90;86.80
11144;DHT22;5626;44.730;10.276;2022-07-06T05:03:58;24.90;87.00
11144;DHT22;5626;44.730;10.276;2022-07-06T05:06:29;24.90;86.90
11144;DHT22;5626;44.730;10.276;2022-07-06T05:08:58;24.90;87.00
11144;DHT22;5626;44.730;10.276;2022-07-06T05:11:30;25.00;86.90
11144;DHT22;5626;44.730;10.276;2022-07-06T05:14:00;25.10;86.70
11144;DHT22;5626;44.730;10.276;2022-07-06T05:16:29;25.20;86.40
11144;DHT22;5626;44.730;10.276;2022-07-06T05:18:59;25.20;86.40
11144;DHT22;5626;44.730;10.276;2022-07-06T05:21:31;25.30;86.10
11144;DHT22;5626;44.730;10.276;2022-07-06T05:24:02;25.30;86.00
11144;DHT22;5626;44.730;10.276;2022-07-06T05:26:32;25.30;86.00
11144;DHT22;5626;44.730;10.276;2022-07-06T05:29:02;25.40;85.80
11144;DHT22;5626;44.730;10.276;2022-07-06T05:31:32;25.30;85.70
11144;DHT22;5626;44.730;10.276;2022-07-06T05:34:02;25.40;85.70
11144;DHT22;5626;44.730;10.276;2022-07-06T05:36:33;25.40;85.70
11144;DHT22;5626;44.730;10.276;2022-07-06T05:39:03;25.40;85.50
11144;DHT22;5626;44.730;10.276;2022-07-06T05:41:33;25.40;85.20
11144;DHT22;5626;44.730;10.276;2022-07-06T05:44:03;25.50;85.30
11144;DHT22;5626;44.730;10.276;2022-07-06T05:46:34;25.60;85.20
11144;DHT22;5626;44.730;10.276;2022-07-06T05:49:03;25.70;84.80
11144;DHT22;5626;44.730;10.276;2022-07-06T05:51:51;25.70;84.80
11144;DHT22;5626;44.730;10.276;2022-07-06T05:54:21;25.80;84.70
11144;DHT22;5626;44.730;10.276;2022-07-06T05:56:51;25.80;84.60
11144;DHT22;5626;44.730;10.276;2022-07-06T05:59:21;25.70;84.50
11144;DHT22;5626;44.730;10.276;2022-07-06T06:01:52;25.80;84.60
11144;DHT22;5626;44.730;10.276;2022-07-06T06:04:24;25.80;84.20
11144;DHT22;5626;44.730;10.276;2022-07-06T06:06:55;25.90;84.00
11144;DHT22;5626;44.730;10.276;2022-07-06T06:09:25;25.90;83.70
11144;DHT22;5626;44.730;10.276;2022-07-06T06:11:55;25.90;83.60
11144;DHT22;5626;44.730;10.276;2022-07-06T06:14:25;25.80;83.70
11144;DHT22;5626;44.730;10.276;2022-07-06T06:16:55;25.80;84.20
11144;DHT22;5626;44.730;10.276;2022-07-06T06:19:25;25.90;84.30
11144;DHT22;5626;44.730;10.276;2022-07-06T06:21:56;25.90;84.40
11144;DHT22;5626;44.730;10.276;2022-07-06T06:24:25;25.90;83.90
11144;DHT22;5626;44.730;10.276;2022-07-06T06:26:56;25.90;84.00
11144;DHT22;5626;44.730;10.276;2022-07-06T06:29:27;26.00;84.20
11144;DHT22;5626;44.730;10.276;2022-07-06T06:31:56;26.00;83.80
11144;DHT22;5626;44.730;10.276;2022-07-06T06:34:26;26.10;83.50
11144;DHT22;5626;44.730;10.276;2022-07-06T06:36:57;26.10;83.30
11144;DHT22;5626;44.730;10.276;2022-07-06T06:39:27;26.20;83.30
11144;DHT22;5626;44.730;10.276;2022-07-06T06:41:56;26.20;82.80
11144;DHT22;5626;44.730;10.276;2022-07-06T06:44:32;26.40;82.70
11144;DHT22;5626;44.730;10.276;2022-07-06T06:47:02;26.50;82.30
11144;DHT22;5626;44.730;10.276;2022-07-06T06:49:31;26.70;82.00
11144;DHT22;5626;44.730;10.276;2022-07-06T06:52:03;27.10;81.20
11144;DHT22;5626;44.730;10.276;2022-07-06T06:54:47;27.40;80.40
11144;DHT22;5626;44.730;10.276;2022-07-06T06:57:17;27.70;79.50
11144;DHT22;5626;44.730;10.276;2022-07-06T06:59:46;28.10;78.60
11144;DHT22;5626;44.730;10.276;2022-07-06T07:02:16;28.40;77.50
11144;DHT22;5626;44.730;10.276;2022-07-06T07:04:45;28.70;76.40
11144;DHT22;5626;44.730;10.276;2022-07-06T07:07:16;29.00;75.80
11144;DHT22;5626;44.730;10.276;2022-07-06T07:09:46;29.20;75.00
11144;DHT22;5626;44.730;10.276;2022-07-06T07:12:16;29.30;74.00
11144;DHT22;5626;44.730;10.276;2022-07-06T07:14:45;29.40;73.50
11144;DHT22;5626;44.730;10.276;2022-07-06T07:17:15;29.30;73.50
11144;DHT22;5626;44.730;10.276;2022-07-06T07:19:45;29.10;73.20
11144;DHT22;5626;44.730;10.276;2022-07-06T07:22:16;28.90;73.40
11144;DHT22;5626;44.730;10.276;2022-07-06T07:24:46;28.70;73.80
11144;DHT22;5626;44.730;10.276;2022-07-06T07:27:15;28.50;74.20
11144;DHT22;5626;44.730;10.276;2022-07-06T07:29:45;28.50;74.70
11144;DHT22;5626;44.730;10.276;2022-07-06T07:32:15;28.60;74.70
11144;DHT22;5626;44.730;10.276;2022-07-06T07:34:44;28.70;74.80
11144;DHT22;5626;44.730;10.276;2022-07-06T07:37:14;28.80;75.00
11144;DHT22;5626;44.730;10.276;2022-07-06T07:39:45;28.90;74.00
11144;DHT22;5626;44.730;10.276;2022-07-06T07:42:14;29.10;73.90
11144;DHT22;5626;44.730;10.276;2022-07-06T07:44:45;29.20;73.10
11144;DHT22;5626;44.730;10.276;2022-07-06T07:47:14;29.30;73.00
11144;DHT22;5626;44.730;10.276;2022-07-06T07:49:44;29.40;72.80
11144;DHT22;5626;44.730;10.276;2022-07-06T07:52:14;29.60;72.60
11144;DHT22;5626;44.730;10.276;2022-07-06T07:54:45;29.90;71.80
11144;DHT22;5626;44.730;10.276;2022-07-06T07:57:20;30.10;71.00
11144;DHT22;5626;44.730;10.276;2022-07-06T07:59:50;30.10;70.60
11144;DHT22;5626;44.730;10.276;2022-07-06T08:02:20;30.10;70.30
11144;DHT22;5626;44.730;10.276;2022-07-06T08:04:49;30.20;70.20
11144;DHT22;5626;44.730;10.276;2022-07-06T08:07:19;30.40;70.10
11144;DHT22;5626;44.730;10.276;2022-07-06T08:09:50;30.50;69.60
11144;DHT22;5626;44.730;10.276;2022-07-06T08:12:20;30.60;69.00
11144;DHT22;5626;44.730;10.276;2022-07-06T08:14:49;30.80;68.10
11144;DHT22;5626;44.730;10.276;2022-07-06T08:17:19;31.00;68.20
11144;DHT22;5626;44.730;10.276;2022-07-06T08:19:49;31.10;67.60
11144;DHT22;5626;44.730;10.276;2022-07-06T08:22:19;31.10;67.50
11144;DHT22;5626;44.730;10.276;2022-07-06T08:24:50;31.10;68.00
11144;DHT22;5626;44.730;10.276;2022-07-06T08:27:19;31.20;67.90
11144;DHT22;5626;44.730;10.276;2022-07-06T08:29:49;31.30;67.50
11144;DHT22;5626;44.730;10.276;2022-07-06T08:32:19;31.40;67.20
11144;DHT22;5626;44.730;10.276;2022-07-06T08:34:57;31.50;67.50
11144;DHT22;5626;44.730;10.276;2022-07-06T08:37:26;31.50;67.10
11144;DHT22;5626;44.730;10.276;2022-07-06T08:39:57;31.50;66.60
11144;DHT22;5626;44.730;10.276;2022-07-06T08:42:31;31.50;66.90
11144;DHT22;5626;44.730;10.276;2022-07-06T08:45:02;31.50;66.30
11144;DHT22;5626;44.730;10.276;2022-07-06T08:47:33;31.70;66.80
11144;DHT22;5626;44.730;10.276;2022-07-06T08:50:05;31.80;66.50
11144;DHT22;5626;44.730;10.276;2022-07-06T08:52:36;31.90;66.20
11144;DHT22;5626;44.730;10.276;2022-07-06T08:55:09;32.00;65.80
11144;DHT22;5626;44.730;10.276;2022-07-06T08:57:38;32.00;65.70
11144;DHT22;5626;44.730;10.276;2022-07-06T09:00:10;32.10;65.40
11144;DHT22;5626;44.730;10.276;2022-07-06T09:02:40;32.10;65.40
11144;DHT22;5626;44.730;10.276;2022-07-06T09:05:12;32.10;65.30
11144;DHT22;5626;44.730;10.276;2022-07-06T09:07:44;32.00;64.60
11144;DHT22;5626;44.730;10.276;2022-07-06T09:10:27;31.80;65.70
11144;DHT22;5626;44.730;10.276;2022-07-06T09:13:02;32.00;65.90
11144;DHT22;5626;44.730;10.276;2022-07-06T09:15:33;32.00;65.90
11144;DHT22;5626;44.730;10.276;2022-07-06T09:18:04;32.20;65.50
11144;DHT22;5626;44.730;10.276;2022-07-06T09:20:34;32.30;65.70
11144;DHT22;5626;44.730;10.276;2022-07-06T09:23:05;32.30;65.00
11144;DHT22;5626;44.730;10.276;2022-07-06T09:25:38;32.40;64.60
11144;DHT22;5626;44.730;10.276;2022-07-06T09:28:08;32.50;65.40
11144;DHT22;5626;44.730;10.276;2022-07-06T09:30:37;32.60;64.30
11144;DHT22;5626;44.730;10.276;2022-07-06T09:33:09;32.70;64.40
11144;DHT22;5626;44.730;10.276;2022-07-06T09:35:40;32.80;64.50
11144;DHT22;5626;44.730;10.276;2022-07-06T09:38:11;32.90;64.20
11144;DHT22;5626;44.730;10.276;2022-07-06T09:40:44;32.90;64.20
11144;DHT22;5626;44.730;10.276;2022-07-06T09:43:16;33.00;64.10
11144;DHT22;5626;44.730;10.276;2022-07-06T09:45:48;33.10;63.90
11144;DHT22;5626;44.730;10.276;2022-07-06T09:48:19;33.10;63.40
11144;DHT22;5626;44.730;10.276;2022-07-06T09:50:51;33.10;63.10
11144;DHT22;5626;44.730;10.276;2022-07-06T09:53:22;33.10;63.80
11144;DHT22;5626;44.730;10.276;2022-07-06T09:55:55;33.20;63.20
11144;DHT22;5626;44.730;10.276;2022-07-06T09:58:26;33.10;63.50
11144;DHT22;5626;44.730;10.276;2022-07-06T10:01:04;33.10;64.00
11144;DHT22;5626;44.730;10.276;2022-07-06T10:03:34;33.10;63.90
11144;DHT22;5626;44.730;10.276;2022-07-06T10:06:04;33.20;63.90
11144;DHT22;5626;44.730;10.276;2022-07-06T10:08:35;33.30;63.80
11144;DHT22;5626;44.730;10.276;2022-07-06T10:11:07;33.40;64.40
11144;DHT22;5626;44.730;10.276;2022-07-06T10:13:42;33.50;63.40
11144;DHT22;5626;44.730;10.276;2022-07-06T10:16:14;33.70;62.40
11144;DHT22;5626;44.730;10.276;2022-07-06T10:18:44;33.70;62.30
11144;DHT22;5626;44.730;10.276;2022-07-06T10:21:14;33.70;62.50
11144;DHT22;5626;44.730;10.276;2022-07-06T10:23:44;33.70;62.90
11144;DHT22;5626;44.730;10.276;2022-07-06T10:26:16;33.80;63.30
11144;DHT22;5626;44.730;10.276;2022-07-06T10:28:47;34.00;62.60
11144;DHT22;5626;44.730;10.276;2022-07-06T10:31:18;34.20;62.10
11144;DHT22;5626;44.730;10.276;2022-07-06T10:33:48;34.50;61.70
11144;DHT22;5626;44.730;10.276;2022-07-06T10:36:18;34.70;61.00
11144;DHT22;5626;44.730;10.276;2022-07-06T10:38:49;34.80;60.70
11144;DHT22;5626;44.730;10.276;2022-07-06T10:41:30;34.80;60.10
11144;DHT22;5626;44.730;10.276;2022-07-06T10:44:14;34.90;60.30
11144;DHT22;5626;44.730;10.276;2022-07-06T10:46:52;34.90;60.10
11144;DHT22;5626;44.730;10.276;2022-07-06T10:49:23;35.00;60.30
11144;DHT22;5626;44.730;10.276;2022-07-06T10:52:16;35.20;60.00
11144;DHT22;5626;44.730;10.276;2022-07-06T10:54:46;35.30;60.10
11144;DHT22;5626;44.730;10.276;2022-07-06T10:57:17;35.30;59.60
11144;DHT22;5626;44.730;10.276;2022-07-06T11:00:01;35.40;59.50
11144;DHT22;5626;44.730;10.276;2022-07-06T11:02:38;35.30;59.00
11144;DHT22;5626;44.730;10.276;2022-07-06T11:05:11;35.00;59.70
11144;DHT22;5626;44.730;10.276;2022-07-06T11:07:49;34.80;60.50
11144;DHT22;5626;44.730;10.276;2022-07-06T11:10:22;34.80;60.50
11144;DHT22;5626;44.730;10.276;2022-07-06T11:13:00;35.00;60.10
11144;DHT22;5626;44.730;10.276;2022-07-06T11:15:47;35.20;60.10
11144;DHT22;5626;44.730;10.276;2022-07-06T11:18:19;35.20;59.90
11144;DHT22;5626;44.730;10.276;2022-07-06T11:21:14;35.10;60.40
11144;DHT22;5626;44.730;10.276;2022-07-06T11:23:46;35.00;60.60
11144;DHT22;5626;44.730;10.276;2022-07-06T11:26:17;35.10;60.20
11144;DHT22;5626;44.730;10.276;2022-07-06T11:28:48;35.20;59.80
11144;DHT22;5626;44.730;10.276;2022-07-06T11:31:20;35.20;59.40
11144;DHT22;5626;44.730;10.276;2022-07-06T11:33:50;35.20;59.00
11144;DHT22;5626;44.730;10.276;2022-07-06T11:36:21;35.00;59.80
11144;DHT22;5626;44.730;10.276;2022-07-06T11:38:51;35.00;60.30
11144;DHT22;5626;44.730;10.276;2022-07-06T11:41:21;35.00;59.60
11144;DHT22;5626;44.730;10.276;2022-07-06T11:43:52;34.90;60.00
11144;DHT22;5626;44.730;10.276;2022-07-06T11:46:24;34.90;59.70
11144;DHT22;5626;44.730;10.276;2022-07-06T11:48:55;34.90;59.20
11144;DHT22;5626;44.730;10.276;2022-07-06T11:51:27;35.00;59.80
11144;DHT22;5626;44.730;10.276;2022-07-06T11:53:58;35.20;59.80
11144;DHT22;5626;44.730;10.276;2022-07-06T11:56:29;35.20;60.00
11144;DHT22;5626;44.730;10.276;2022-07-06T11:59:01;35.10;59.70
11144;DHT22;5626;44.730;10.276;2022-07-06T12:01:32;35.10;59.20
11144;DHT22;5626;44.730;10.276;2022-07-06T12:04:02;35.10;59.80
11144;DHT22;5626;44.730;10.276;2022-07-06T12:06:32;35.20;59.70
11144;DHT22;5626;44.730;10.276;2022-07-06T12:09:05;35.30;59.40
11144;DHT22;5626;44.730;10.276;2022-07-06T12:11:36;35.60;58.60
11144;DHT22;5626;44.730;10.276;2022-07-06T12:14:20;35.70;58.00
11144;DHT22;5626;44.730;10.276;2022-07-06T12:16:50;35.90;57.10
11144;DHT22;5626;44.730;10.276;2022-07-06T12:19:21;36.00;57.60
11144;DHT22;5626;44.730;10.276;2022-07-06T12:21:52;36.20;56.60
11144;DHT22;5626;44.730;10.276;2022-07-06T12:24:23;36.20;56.70
11144;DHT22;5626;44.730;10.276;2022-07-06T12:26:54;36.10;56.60
11144;DHT22;5626;44.730;10.276;2022-07-06T12:29:25;36.00;57.10
11144;DHT22;5626;44.730;10.276;2022-07-06T12:31:56;35.70;56.70
11144;DHT22;5626;44.730;10.276;2022-07-06T12:34:28;35.50;57.80
11144;DHT22;5626;44.730;10.276;2022-07-06T12:36:59;35.30;57.90
11144;DHT22;5626;44.730;10.276;2022-07-06T12:39:42;35.10;58.20
11144;DHT22;5626;44.730;10.276;2022-07-06T12:42:14;35.00;58.20
11144;DHT22;5626;44.730;10.276;2022-07-06T12:44:49;34.90;59.00
11144;DHT22;5626;44.730;10.276;2022-07-06T12:47:21;35.00;58.80
11144;DHT22;5626;44.730;10.276;2022-07-06T12:50:05;35.20;58.50
11144;DHT22;5626;44.730;10.276;2022-07-06T12:52:35;35.20;57.40
11144;DHT22;5626;44.730;10.276;2022-07-06T12:55:06;35.20;57.50
11144;DHT22;5626;44.730;10.276;2022-07-06T12:57:45;35.20;59.10
11144;DHT22;5626;44.730;10.276;2022-07-06T13:00:16;35.10;58.60
11144;DHT22;5626;44.730;10.276;2022-07-06T13:02:48;35.20;58.50
11144;DHT22;5626;44.730;10.276;2022-07-06T13:05:37;35.20;57.90
11144;DHT22;5626;44.730;10.276;2022-07-06T13:08:07;34.90;57.80
11144;DHT22;5626;44.730;10.276;2022-07-06T13:10:37;34.90;58.00
11144;DHT22;5626;44.730;10.276;2022-07-06T13:13:09;34.90;58.70
11144;DHT22;5626;44.730;10.276;2022-07-06T13:15:43;35.00;59.20
11144;DHT22;5626;44.730;10.276;2022-07-06T13:18:12;35.20;57.80
11144;DHT22;5626;44.730;10.276;2022-07-06T13:20:42;35.30;57.90
11144;DHT22;5626;44.730;10.276;2022-07-06T13:23:12;35.50;58.00
11144;DHT22;5626;44.730;10.276;2022-07-06T13:25:42;35.80;57.60
11144;DHT22;5626;44.730;10.276;2022-07-06T13:28:11;36.00;57.30
11144;DHT22;5626;44.730;10.276;2022-07-06T13:30:42;36.00;57.20
11144;DHT22;5626;44.730;10.276;2022-07-06T13:33:12;35.90;56.10
11144;DHT22;5626;44.730;10.276;2022-07-06T13:35:42;35.80;56.60
11144;DHT22;5626;44.730;10.276;2022-07-06T13:38:11;35.70;56.50
11144;DHT22;5626;44.730;10.276;2022-07-06T13:40:42;35.60;56.30
11144;DHT22;5626;44.730;10.276;2022-07-06T13:43:11;35.30;56.50
11144;DHT22;5626;44.730;10.276;2022-07-06T13:45:42;35.00;57.60
11144;DHT22;5626;44.730;10.276;2022-07-06T13:48:12;34.70;58.00
11144;DHT22;5626;44.730;10.276;2022-07-06T13:50:42;34.30;58.50
11144;DHT22;5626;44.730;10.276;2022-07-06T13:53:11;33.90;59.00
11144;DHT22;5626;44.730;10.276;2022-07-06T13:55:41;33.60;59.60
11144;DHT22;5626;44.730;10.276;2022-07-06T13:58:11;33.50;59.90
11144;DHT22;5626;44.730;10.276;2022-07-06T14:00:42;33.40;60.60
11144;DHT22;5626;44.730;10.276;2022-07-06T14:03:12;33.30;60.60
11144;DHT22;5626;44.730;10.276;2022-07-06T14:05:42;33.20;61.30
11144;DHT22;5626;44.730;10.276;2022-07-06T14:08:11;33.10;61.10
11144;DHT22;5626;44.730;10.276;2022-07-06T14:10:41;32.80;61.70
11144;DHT22;5626;44.730;10.276;2022-07-06T14:13:11;32.70;62.50
11144;DHT22;5626;44.730;10.276;2022-07-06T14:15:46;32.60;62.70
11144;DHT22;5626;44.730;10.276;2022-07-06T14:18:16;32.50;62.90
11144;DHT22;5626;44.730;10.276;2022-07-06T14:20:48;32.50;63.20
11144;DHT22;5626;44.730;10.276;2022-07-06T14:23:18;32.30;64.00
11144;DHT22;5626;44.730;10.276;2022-07-06T14:25:48;32.20;64.40
11144;DHT22;5626;44.730;10.276;2022-07-06T14:28:18;32.20;64.40
11144;DHT22;5626;44.730;10.276;2022-07-06T14:30:50;32.20;64.50
11144;DHT22;5626;44.730;10.276;2022-07-06T14:33:20;32.20;64.90
11144;DHT22;5626;44.730;10.276;2022-07-06T14:35:50;32.20;65.20
11144;DHT22;5626;44.730;10.276;2022-07-06T14:38:20;32.10;64.60
11144;DHT22;5626;44.730;10.276;2022-07-06T14:40:50;32.00;64.50
11144;DHT22;5626;44.730;10.276;2022-07-06T14:43:19;31.80;64.90
11144;DHT22;5626;44.730;10.276;2022-07-06T14:45:50;31.80;65.50
11144;DHT22;5626;44.730;10.276;2022-07-06T14:48:21;31.60;66.10
11144;DHT22;5626;44.730;10.276;2022-07-06T14:50:51;31.50;66.40
11144;DHT22;5626;44.730;10.276;2022-07-06T14:53:21;31.50;66.40
11144;DHT22;5626;44.730;10.276;2022-07-06T14:55:51;31.40;66.60
11144;DHT22;5626;44.730;10.276;2022-07-06T14:58:20;31.30;66.70
11144;DHT22;5626;44.730;10.276;2022-07-06T15:00:52;31.40;67.10
11144;DHT22;5626;44.730;10.276;2022-07-06T15:03:25;31.40;67.00
11144;DHT22;5626;44.730;10.276;2022-07-06T15:05:55;31.40;67.00
11144;DHT22;5626;44.730;10.276;2022-07-06T15:08:24;31.40;66.90
11144;DHT22;5626;44.730;10.276;2022-07-06T15:10:54;31.40;67.00
11144;DHT22;5626;44.730;10.276;2022-07-06T15:13:24;31.40;66.80
11144;DHT22;5626;44.730;10.276;2022-07-06T15:15:55;31.40;67.10
11144;DHT22;5626;44.730;10.276;2022-07-06T15:18:26;31.40;67.00
11144;DHT22;5626;44.730;10.276;2022-07-06T15:20:55;31.40;67.40
11144;DHT22;5626;44.730;10.276;2022-07-06T15:23:25;31.40;67.40
11144;DHT22;5626;44.730;10.276;2022-07-06T15:25:55;31.40;67.50
11144;DHT22;5626;44.730;10.276;2022-07-06T15:28:25;31.40;67.60
11144;DHT22;5626;44.730;10.276;2022-07-06T15:30:56;31.40;67.60
11144;DHT22;5626;44.730;10.276;2022-07-06T15:33:26;31.50;67.90
11144;DHT22;5626;44.730;10.276;2022-07-06T15:35:56;31.40;68.30
11144;DHT22;5626;44.730;10.276;2022-07-06T15:38:26;31.30;68.50
11144;DHT22;5626;44.730;10.276;2022-07-06T15:40:56;31.20;69.20
11144;DHT22;5626;44.730;10.276;2022-07-06T15:43:30;31.20;69.80
11144;DHT22;5626;44.730;10.276;2022-07-06T15:46:03;31.20;69.70
11144;DHT22;5626;44.730;10.276;2022-07-06T15:48:33;31.40;69.60
11144;DHT22;5626;44.730;10.276;2022-07-06T15:51:03;31.70;69.50
11144;DHT22;5626;44.730;10.276;2022-07-06T15:53:33;32.10;68.20